Time;durP1;ratioP1;P1;durP2;ratioP2;P2;SDS_P1;SDS_P2;PMS_P1;PMS_P2;Temp;Humidity;BMP_temperature;BMP_pressure;BME280_temperature;BME280_humidity;BME280_pressure;Samples;Min_cycle;Max_cycle;Signal;HPM_P1;HPM_P2
2021/12/16 00:02:08;;;;;;;13.25;9.35;;;;;;;8.09;67.35;101630.88;10316497;28;20056;-66
2021/12/16 00:34:02;;;;;;;13.65;9.15;;;;;;;7.71;67.84;101655.19;10387035;28;20053;-66
2021/12/16 00:39:09;;;;;;;15.70;10.23;;;;;;;7.56;68.54;101656.34;10402241;28;20180;-66
2021/12/16 00:54:23;;;;;;;20.55;11.70;;;;;;;7.98;67.65;101655.44;10402428;28;20405;-66
2021/12/16 00:59:28;;;;;;;14.40;9.70;;;;;;;8.04;67.42;101660.50;10402213;28;20049;-66
2021/12/16 01:42:10;;;;;;;16.15;10.10;;;;;;;8.04;67.39;101664.84;10408856;28;20045;-66
2021/12/16 01:57:31;;;;;;;23.77;14.38;;;;;;;8.02;67.33;101672.72;10408259;28;20476;-66
2021/12/16 02:38:54;;;;;;;25.20;13.40;;;;;;;7.86;67.40;101671.31;10407086;28;20738;-66
2021/12/16 02:49:08;;;;;;;26.92;14.80;;;;;;;7.90;67.54;101667.78;10406865;28;20056;-66
2021/12/16 02:54:10;;;;;;;22.08;15.15;;;;;;;7.92;67.44;101668.59;10405376;28;20068;-66
2021/12/16 02:59:14;;;;;;;28.17;16.90;;;;;;;7.93;67.29;101672.06;10406616;28;20041;-66
2021/12/16 03:04:19;;;;;;;22.83;14.75;;;;;;;7.84;67.31;101675.72;10427163;28;20052;-66
2021/12/16 03:09:42;;;;;;;24.27;16.38;;;;;;;7.81;67.66;101665.34;10414000;28;20253;-66
2021/12/16 03:14:53;;;;;;;28.25;16.77;;;;;;;7.85;67.54;101664.38;10411604;28;20061;-66
2021/12/16 03:20:06;;;;;;;25.20;15.88;;;;;;;7.87;67.55;101675.66;10413940;28;20052;-66
2021/12/16 03:30:44;;;;;;;21.55;13.57;;;;;;;7.76;67.44;101667.19;10413190;28;20049;-66
2021/12/16 03:35:51;;;;;;;14.55;9.98;;;;;;;7.71;67.50;101682.06;10412111;28;20049;-66
2021/12/16 03:40:53;;;;;;;12.43;8.18;;;;;;;7.68;67.75;101670.84;10412608;28;20048;-66
2021/12/16 03:51:24;;;;;;;17.98;8.25;;;;;;;7.39;68.75;101676.63;10412877;28;20330;-66
2021/12/16 03:56:29;;;;;;;13.38;8.85;;;;;;;7.55;68.16;101672.84;10425979;28;20053;-66
2021/12/16 04:01:31;;;;;;;12.93;9.35;;;;;;;7.43;68.25;101686.09;10412318;28;20421;-65
2021/12/16 04:06:36;;;;;;;16.90;10.85;;;;;;;7.36;68.62;101684.50;10406114;28;20464;-66
2021/12/16 04:11:44;;;;;;;27.15;14.73;;;;;;;7.49;68.52;101685.97;10403887;28;20501;-66
2021/12/16 04:16:49;;;;;;;24.08;15.68;;;;;;;7.52;68.43;101685.94;10404015;28;20077;-66
2021/12/16 04:21:56;;;;;;;20.15;13.80;;;;;;;7.54;68.54;101691.09;10404316;28;20049;-66
2021/12/16 04:26:59;;;;;;;20.80;13.18;;;;;;;7.52;68.29;101698.94;10402632;28;20512;-66
2021/12/16 04:32:03;;;;;;;19.67;12.15;;;;;;;7.52;68.40;101685.94;10403936;28;20119;-66
2021/12/16 04:37:05;;;;;;;13.30;9.32;;;;;;;7.56;68.23;101678.91;10403991;28;20141;-66
2021/12/16 04:42:08;;;;;;;14.57;8.85;;;;;;;7.57;68.11;101691.06;10403227;28;20481;-66
2021/12/16 04:47:12;;;;;;;17.65;9.32;;;;;;;7.51;68.21;101691.16;10403841;28;20045;-66
2021/12/16 04:52:17;;;;;;;13.93;9.18;;;;;;;7.29;68.69;101708.03;10403159;28;20111;-66
2021/12/16 04:57:19;;;;;;;16.23;9.98;;;;;;;7.18;68.79;101709.09;10402961;28;20071;-66
2021/12/16 05:02:23;;;;;;;16.45;10.13;;;;;;;7.08;69.23;101714.50;10404086;28;20485;-66
2021/12/16 05:07:24;;;;;;;14.57;9.75;;;;;;;7.11;69.31;101711.84;10404422;28;20266;-66
2021/12/16 05:12:29;;;;;;;16.23;10.75;;;;;;;7.22;69.01;101722.06;10410518;28;20045;-66
2021/12/16 05:17:37;;;;;;;15.30;10.23;;;;;;;7.36;68.86;101720.06;10411090;28;20053;-66
2021/12/16 05:28:04;;;;;;;20.33;11.15;;;;;;;7.49;68.27;101734.59;10410219;28;20041;-66
2021/12/16 05:33:06;;;;;;;17.65;10.75;;;;;;;7.49;68.23;101730.22;10410767;28;20042;-65
2021/12/16 05:38:09;;;;;;;22.55;13.13;;;;;;;7.53;68.22;101742.28;10409913;28;20046;-66
2021/12/16 05:43:15;;;;;;;21.15;13.30;;;;;;;7.58;68.14;101740.47;10409223;28;20059;-66
2021/12/16 05:48:19;;;;;;;20.45;13.15;;;;;;;7.57;67.92;101736.16;10409827;28;20128;-66
2021/12/16 05:53:22;;;;;;;22.70;13.48;;;;;;;7.53;67.88;101744.91;10410082;28;20049;-66
2021/12/16 05:58:24;;;;;;;17.88;11.45;;;;;;;7.51;67.97;101743.25;10408515;28;20052;-66
2021/12/16 06:03:28;;;;;;;17.88;9.70;;;;;;;7.46;68.11;101742.44;10409924;28;20404;-66
2021/12/16 06:08:30;;;;;;;13.75;9.00;;;;;;;7.24;68.44;101741.97;10408819;28;20509;-66
2021/12/16 06:13:41;;;;;;;18.38;9.98;;;;;;;7.29;68.75;101752.28;10408573;28;20067;-66
2021/12/16 06:29:25;;;;;;;20.90;11.50;;;;;;;6.90;69.24;101767.69;10393574;28;20045;-66
2021/12/16 06:34:27;;;;;;;22.52;12.45;;;;;;;6.92;69.27;101771.13;10408462;28;20049;-66
2021/12/16 06:39:29;;;;;;;20.08;13.85;;;;;;;6.84;69.46;101783.38;10407957;28;20052;-66
2021/12/16 06:44:38;;;;;;;23.13;11.95;;;;;;;6.77;69.87;101786.97;10407664;28;20046;-66
2021/12/16 06:49:43;;;;;;;19.77;12.05;;;;;;;6.60;69.70;101794.13;10407616;28;20132;-66
2021/12/16 07:00:06;;;;;;;23.80;13.75;;;;;;;6.49;69.73;101805.56;10407291;28;20099;-66
2021/12/16 07:05:34;;;;;;;23.90;14.73;;;;;;;6.42;69.89;101814.31;10407129;28;20053;-66
2021/12/16 07:10:36;;;;;;;28.25;15.32;;;;;;;6.39;70.36;101817.81;10406242;28;20053;-66
2021/12/16 07:15:38;;;;;;;26.50;13.32;;;;;;;6.52;69.92;101826.31;10405022;28;20057;-66
2021/12/16 07:20:40;;;;;;;22.50;13.82;;;;;;;6.63;69.54;101829.63;10403942;28;20053;-66
2021/12/16 07:25:42;;;;;;;32.72;17.27;;;;;;;6.64;69.48;101832.22;10405867;28;20052;-66
2021/12/16 07:30:46;;;;;;;27.15;16.00;;;;;;;6.67;69.51;101837.38;10404082;28;20051;-66
2021/12/16 07:35:48;;;;;;;18.67;11.10;;;;;;;6.79;69.46;101833.75;10404386;28;20045;-66
2021/12/16 07:40:52;;;;;;;19.42;10.23;;;;;;;6.78;69.49;101845.88;10405542;28;20041;-66
2021/12/16 07:45:57;;;;;;;20.13;10.77;;;;;;;6.90;69.23;101842.25;10405421;28;20470;-66
2021/12/16 07:51:01;;;;;;;19.33;11.38;;;;;;;6.87;69.16;101853.56;10404812;28;20049;-66
2021/12/16 07:56:04;;;;;;;18.30;9.43;;;;;;;6.98;68.85;101849.06;10404494;28;20115;-66
2021/12/16 08:01:06;;;;;;;15.32;10.48;;;;;;;6.95;68.78;101850.84;10404709;28;20079;-66
2021/12/16 08:06:21;;;;;;;23.38;11.60;;;;;;;6.85;68.65;101855.34;10404674;28;20045;-66
2021/12/16 08:11:25;;;;;;;23.05;14.02;;;;;;;6.63;69.09;101879.03;10404415;28;20512;-66
2021/12/16 08:16:27;;;;;;;23.05;13.35;;;;;;;6.55;69.18;101879.09;10401754;28;20401;-66
2021/12/16 08:21:29;;;;;;;21.52;12.32;;;;;;;6.69;68.72;101885.03;10404275;28;20065;-66
2021/12/16 08:26:32;;;;;;;22.15;12.02;;;;;;;6.90;68.64;101891.66;10404141;28;20049;-66
2021/12/16 08:31:34;;;;;;;21.05;11.02;;;;;;;7.28;68.05;101905.00;10404036;28;20055;-66
2021/12/16 08:36:36;;;;;;;14.35;10.00;;;;;;;7.59;67.59;101911.44;10403809;28;20059;-66
2021/12/16 08:41:42;;;;;;;23.23;11.50;;;;;;;7.63;67.55;101912.25;10403712;28;20075;-66
2021/12/16 08:46:49;;;;;;;16.20;11.30;;;;;;;7.76;67.33;101916.38;10371711;28;20071;-66
2021/12/16 08:51:54;;;;;;;18.35;10.63;;;;;;;7.76;67.33;101914.63;10403506;28;20045;-66
2021/12/16 08:56:56;;;;;;;18.27;12.25;;;;;;;7.80;67.47;101915.44;10403610;28;20076;-66
2021/12/16 09:01:59;;;;;;;16.30;9.70;;;;;;;7.95;67.29;101918.66;10402931;28;20041;-66
2021/12/16 09:07:04;;;;;;;15.40;9.55;;;;;;;8.10;66.86;101919.25;10401599;28;20100;-66
2021/12/16 09:12:15;;;;;;;12.18;8.50;;;;;;;8.19;66.85;101932.16;10400632;28;20060;-66
2021/12/16 09:17:17;;;;;;;15.90;8.35;;;;;;;8.37;66.59;101939.63;10400276;28;20424;-66
2021/12/16 09:22:22;;;;;;;12.88;8.43;;;;;;;8.47;66.30;101929.00;10403562;28;20136;-66
2021/12/16 09:27:26;;;;;;;15.57;8.93;;;;;;;8.59;66.07;101936.56;10386750;28;20037;-80
2021/12/16 09:32:30;;;;;;;17.13;9.75;;;;;;;8.78;65.71;101935.31;10399783;28;20045;-79
2021/12/16 09:37:33;;;;;;;16.02;8.13;;;;;;;8.84;65.31;101948.25;10396939;28;20061;-79
2021/12/16 09:42:35;;;;;;;17.05;9.10;;;;;;;8.92;65.19;101937.63;10399650;28;20437;-78
2021/12/16 09:47:38;;;;;;;15.05;9.45;;;;;;;9.01;65.10;101950.50;10399011;28;20059;-78
2021/12/16 09:52:40;;;;;;;24.08;13.43;;;;;;;9.18;65.14;101953.59;10399225;28;20050;-78
2021/12/16 09:57:42;;;;;;;17.40;10.57;;;;;;;9.40;64.90;101952.19;10403526;28;20068;-79
2021/12/16 10:02:46;;;;;;;15.68;9.30;;;;;;;9.52;64.60;101949.31;10385012;28;20076;-79
2021/12/16 10:07:48;;;;;;;19.95;10.77;;;;;;;9.62;64.04;101943.00;10395941;28;20076;-79
2021/12/16 10:12:52;;;;;;;21.63;11.57;;;;;;;9.69;64.21;101940.28;10386856;28;20482;-79
2021/12/16 10:17:55;;;;;;;17.08;11.80;;;;;;;9.84;64.01;101947.72;10403270;28;20127;-79
2021/12/16 10:23:08;;;;;;;21.08;13.23;;;;;;;9.90;63.51;101944.94;10400767;28;20627;-79
2021/12/16 10:28:16;;;;;;;19.98;12.13;;;;;;;9.98;63.71;101930.78;10389495;28;20046;-79
2021/12/16 10:33:40;;;;;;;18.67;10.27;;;;;;;10.01;63.06;101938.53;10391713;28;20077;-78
2021/12/16 10:39:15;;;;;;;18.98;11.23;;;;;;;10.16;63.07;101932.94;10396695;28;20041;-79
2021/12/16 10:44:19;;;;;;;19.17;10.88;;;;;;;10.37;63.02;101928.88;10381530;28;20057;-78
2021/12/16 10:49:25;;;;;;;22.98;13.13;;;;;;;10.45;62.54;101930.41;10393268;28;20436;-79
2021/12/16 10:54:37;;;;;;;21.35;12.85;;;;;;;10.59;62.04;101932.63;10404726;28;20051;-73
2021/12/16 10:59:44;;;;;;;25.60;15.43;;;;;;;10.60;61.72;101931.72;10404436;28;20047;-78
2021/12/16 11:04:53;;;;;;;27.55;16.45;;;;;;;10.69;61.54;101936.69;10404643;28;20055;-77
2021/12/16 11:10:18;;;;;;;30.70;16.48;;;;;;;10.67;61.41;101935.88;10391246;28;20055;-78
2021/12/16 11:15:32;;;;;;;28.83;18.30;;;;;;;10.60;60.42;101926.50;10403996;28;20509;-72
2021/12/16 11:20:39;;;;;;;28.05;17.92;;;;;;;10.58;59.92;101923.06;10402012;28;20057;-73
2021/12/16 11:25:44;;;;;;;31.58;18.55;;;;;;;10.50;60.40;101925.03;10388982;28;20406;-75
2021/12/16 11:30:51;;;;;;;27.60;17.98;;;;;;;10.61;60.03;101915.13;10397608;28;20046;-75
2021/12/16 11:35:57;;;;;;;27.10;17.67;;;;;;;10.74;59.51;101906.03;10403311;28;20136;-79
2021/12/16 11:41:06;;;;;;;26.05;16.95;;;;;;;10.93;59.35;101907.19;10403315;28;20069;-78
2021/12/16 11:46:18;;;;;;;27.50;16.52;;;;;;;11.03;58.84;101906.00;10365717;28;20084;-78
2021/12/16 11:51:48;;;;;;;23.33;15.35;;;;;;;11.11;58.73;101896.19;10404306;28;20049;-81
2021/12/16 11:57:14;;;;;;;26.52;16.25;;;;;;;11.13;57.98;101889.13;10402622;28;20045;-82
2021/12/16 12:02:28;;;;;;;26.40;15.32;;;;;;;11.34;56.86;101892.84;10403727;28;20529;-82
2021/12/16 12:07:39;;;;;;;25.63;15.80;;;;;;;11.27;57.01;101892.16;10402169;28;20053;-81
2021/12/16 12:12:46;;;;;;;26.13;15.85;;;;;;;11.34;57.88;101894.63;10402936;28;20352;-81
2021/12/16 12:17:55;;;;;;;24.23;16.02;;;;;;;11.47;57.54;101888.06;10401914;28;20137;-82
2021/12/16 12:22:59;;;;;;;27.00;15.32;;;;;;;11.38;57.71;101894.47;10389279;28;20053;-81
2021/12/16 12:28:01;;;;;;;26.58;15.45;;;;;;;11.26;57.53;101887.84;10397732;28;20408;-81
2021/12/16 12:33:03;;;;;;;21.25;14.57;;;;;;;11.27;57.57;101896.56;10397456;28;20049;-78
2021/12/16 12:38:04;;;;;;;23.40;14.57;;;;;;;11.34;57.33;101897.25;10392769;28;20052;-81
2021/12/16 12:43:09;;;;;;;23.77;14.52;;;;;;;11.44;57.20;101890.81;10400657;28;20047;-77
2021/12/16 12:48:14;;;;;;;24.30;14.95;;;;;;;11.41;57.12;101899.63;10393211;28;20049;-81
2021/12/16 12:53:19;;;;;;;23.70;14.35;;;;;;;11.31;57.58;101898.19;10400121;28;20124;-78
2021/12/16 12:58:24;;;;;;;20.75;14.13;;;;;;;11.29;57.62;101895.59;10394152;28;20052;-79
2021/12/16 13:03:39;;;;;;;21.65;13.95;;;;;;;11.16;57.26;101903.91;10393262;28;20453;-78
2021/12/16 13:08:45;;;;;;;26.85;14.75;;;;;;;11.01;57.37;101907.81;10389878;28;20384;-78
2021/12/16 13:25:34;;;;;;;29.42;16.58;;;;;;;10.92;57.53;101905.47;10399520;28;20045;-77
2021/12/16 13:30:31;;;;;;;31.10;18.02;;;;;;;10.88;57.95;101913.47;10404005;28;20048;-78
2021/12/16 13:35:46;;;;;;;33.75;17.95;;;;;;;10.87;58.21;101903.88;10406388;28;20052;-80
2021/12/16 13:40:50;;;;;;;31.50;17.75;;;;;;;10.81;58.60;101915.41;10408962;28;20133;-79
2021/12/16 13:46:33;;;;;;;29.88;17.80;;;;;;;10.64;58.59;101917.66;10405858;28;20042;-79
2021/12/16 14:07:57;;;;;;;36.65;20.75;;;;;;;10.57;59.76;101921.34;10402914;28;20042;-80
2021/12/16 14:24:29;;;;;;;40.47;21.50;;;;;;;10.54;60.31;101939.75;10391077;28;20417;-79
2021/12/16 14:35:02;;;;;;;36.33;20.63;;;;;;;10.25;60.52;101952.75;10401832;28;20143;-79
2021/12/16 14:40:14;;;;;;;38.25;21.08;;;;;;;10.17;60.91;101955.56;10404971;28;20516;-79
2021/12/16 14:45:29;;;;;;;35.78;21.42;;;;;;;10.20;61.00;101952.88;10391435;28;20091;-78
2021/12/16 14:50:47;;;;;;;36.97;21.38;;;;;;;10.19;61.09;101958.16;10406171;28;20045;-78
2021/12/16 14:55:51;;;;;;;37.80;22.80;;;;;;;10.21;61.18;101959.84;10403792;28;20049;-78
2021/12/16 15:01:05;;;;;;;37.00;22.40;;;;;;;10.12;61.68;101956.56;10406447;28;20080;-78
2021/12/16 15:06:24;;;;;;;39.15;24.00;;;;;;;10.10;61.91;101958.38;10397246;28;20076;-79
2021/12/16 15:11:39;;;;;;;43.00;24.70;;;;;;;10.16;61.74;101958.22;10406092;28;20405;-78
2021/12/16 15:42:53;;;;;;;48.17;26.63;;;;;;;9.97;62.98;101952.59;10401701;28;20053;-77
2021/12/16 15:48:00;;;;;;;46.90;25.90;;;;;;;9.94;63.05;101957.03;10381462;28;20107;-79
2021/12/16 15:53:06;;;;;;;41.85;25.02;;;;;;;9.98;63.13;101950.84;10396590;28;20073;-76
2021/12/16 15:58:28;;;;;;;43.05;23.52;;;;;;;9.95;62.98;101943.94;10398961;28;20145;-78
2021/12/16 16:03:30;;;;;;;46.30;23.48;;;;;;;9.97;63.07;101957.81;10402183;28;20132;-77
2021/12/16 16:08:38;;;;;;;38.65;23.58;;;;;;;9.98;63.18;101959.56;10400661;28;20077;-80
2021/12/16 16:13:47;;;;;;;39.63;23.40;;;;;;;9.96;63.24;101969.19;10390255;28;20041;-78
2021/12/16 16:18:59;;;;;;;41.30;24.23;;;;;;;9.96;63.21;101961.34;10403281;28;20071;-78
2021/12/16 16:24:03;;;;;;;;;;;;;;;9.59;63.91;101963.97;10404216;28;20047;-77
2021/12/16 16:29:14;;;;;;;43.97;25.33;;;;;;;9.91;63.51;101964.97;10380292;28;19925;-67
2021/12/16 16:34:21;;;;;;;44.28;26.45;;;;;;;9.91;63.45;101962.38;10399243;28;20494;-67
2021/12/16 16:39:29;;;;;;;47.10;27.48;;;;;;;9.85;63.54;101963.34;10401799;28;20056;-67
2021/12/16 16:44:32;;;;;;;45.85;25.50;;;;;;;9.89;63.46;101969.38;10418910;28;20037;-67
2021/12/16 16:49:49;;;;;;;49.58;28.52;;;;;;;9.84;63.56;101971.22;10404540;28;20128;-67
2021/12/16 16:55:00;;;;;;;52.72;28.73;;;;;;;9.85;63.54;101959.91;10403993;28;20674;-67
2021/12/16 17:00:15;;;;;;;51.63;30.40;;;;;;;9.81;63.69;101960.88;10405104;28;20049;-67
2021/12/16 17:05:37;;;;;;;46.45;27.67;;;;;;;9.78;63.82;101958.31;10407082;28;20478;-67
2021/12/16 17:10:47;;;;;;;51.20;29.08;;;;;;;9.83;63.77;101972.16;10412228;28;20053;-67
2021/12/16 17:21:16;;;;;;;49.85;29.05;;;;;;;9.78;63.99;101968.78;10411663;28;20049;-67
2021/12/16 17:26:32;;;;;;;55.25;29.77;;;;;;;9.70;64.19;101987.25;10410998;28;20046;-67
2021/12/16 17:31:42;;;;;;;52.35;29.70;;;;;;;9.82;64.05;101986.09;10411322;28;20057;-67
2021/12/16 17:36:51;;;;;;;52.67;29.27;;;;;;;9.80;64.07;101986.13;10410789;28;20045;-67
2021/12/16 17:42:05;;;;;;;52.85;29.05;;;;;;;9.82;64.14;101992.19;10411087;28;20125;-67
2021/12/16 17:47:14;;;;;;;49.35;28.67;;;;;;;9.79;64.19;101988.78;10409457;28;20521;-67
2021/12/16 17:52:21;;;;;;;49.17;28.90;;;;;;;9.55;64.57;101998.88;10411342;28;20042;-67
2021/12/16 17:57:34;;;;;;;48.60;28.00;;;;;;;9.68;64.54;102006.47;10406967;28;20045;-67
2021/12/16 18:02:45;;;;;;;47.00;26.85;;;;;;;9.65;64.67;102018.69;10408888;28;20073;-67
2021/12/16 18:07:47;;;;;;;53.37;28.93;;;;;;;9.70;64.67;102020.34;10408508;28;20045;-67
2021/12/16 18:12:50;;;;;;;52.97;29.48;;;;;;;9.82;64.16;102031.38;10407101;28;20052;-67
2021/12/16 18:17:58;;;;;;;51.85;28.30;;;;;;;9.80;64.17;102017.50;10407427;28;20057;-67
2021/12/16 18:23:04;;;;;;;53.83;28.85;;;;;;;9.84;64.20;102021.75;10409364;28;20129;-67
2021/12/16 18:28:29;;;;;;;51.47;29.77;;;;;;;9.70;64.32;102028.19;10409436;28;20050;-67
2021/12/16 18:33:35;;;;;;;41.30;24.73;;;;;;;9.71;64.54;102017.69;10406450;28;20481;-67
2021/12/16 18:38:52;;;;;;;48.78;25.55;;;;;;;9.65;64.51;102028.25;10406873;28;20057;-67
2021/12/16 18:43:55;;;;;;;47.90;27.50;;;;;;;9.65;64.61;102030.88;10395471;28;20046;-67
2021/12/16 18:59:25;;;;;;;55.50;31.35;;;;;;;9.78;64.32;102053.25;10405914;28;20120;-67
2021/12/16 19:04:32;;;;;;;54.20;29.08;;;;;;;9.76;64.35;102052.44;10395969;28;20053;-67
2021/12/16 19:09:34;;;;;;;58.22;29.95;;;;;;;9.78;64.20;102055.88;10379154;28;20057;-67
2021/12/16 19:14:42;;;;;;;54.88;29.73;;;;;;;9.79;64.26;102062.81;10382400;28;20053;-68
2021/12/16 19:19:51;;;;;;;56.03;29.65;;;;;;;9.78;64.27;102074.16;10396661;28;20089;-67
2021/12/16 19:24:54;;;;;;;52.63;27.80;;;;;;;9.73;64.36;102073.41;10387569;28;20057;-67
2021/12/16 19:29:57;;;;;;;50.35;27.83;;;;;;;9.73;64.43;102077.78;10381611;28;20049;-67
2021/12/16 19:35:01;;;;;;;48.78;27.67;;;;;;;9.74;64.61;102088.19;10380598;28;20108;-67
2021/12/16 19:40:08;;;;;;;50.38;27.60;;;;;;;9.71;64.58;102093.47;10385069;28;20049;-67
2021/12/16 19:45:11;;;;;;;48.05;26.77;;;;;;;9.68;64.16;102100.53;10391464;28;20047;-67
2021/12/16 19:50:14;;;;;;;50.00;26.98;;;;;;;9.63;64.15;102101.44;10379520;28;20077;-67
2021/12/16 19:55:16;;;;;;;50.47;27.70;;;;;;;9.64;64.35;102102.31;10387823;28;20557;-67
2021/12/16 20:00:30;;;;;;;59.22;33.80;;;;;;;9.62;64.66;102098.88;10392291;28;20053;-67
2021/12/16 20:05:32;;;;;;;52.70;28.52;;;;;;;9.64;64.69;102104.94;10401868;28;20072;-67
2021/12/16 20:10:40;;;;;;;46.05;26.98;;;;;;;9.70;64.44;102106.56;10399814;28;20055;-67
2021/12/16 20:15:46;;;;;;;47.08;27.35;;;;;;;9.61;64.61;102104.97;10403339;28;20176;-67
2021/12/16 20:20:54;;;;;;;49.58;29.13;;;;;;;9.53;64.94;102113.00;10403114;28;20405;-67
2021/12/16 20:26:06;;;;;;;52.85;28.58;;;;;;;9.59;64.78;102112.00;10403400;28;20079;-67
2021/12/16 20:31:26;;;;;;;52.70;27.92;;;;;;;9.52;65.08;102110.41;10401902;28;20068;-67
2021/12/16 20:36:41;;;;;;;51.47;28.65;;;;;;;9.44;65.29;102113.16;10403342;28;20579;-67
2021/12/16 20:41:48;;;;;;;47.28;26.73;;;;;;;9.55;64.88;102110.34;10401784;28;20099;-67
2021/12/16 20:46:55;;;;;;;57.80;29.40;;;;;;;9.55;64.92;102107.72;10399700;28;20046;-67
2021/12/16 20:52:07;;;;;;;53.25;27.80;;;;;;;9.54;65.03;102096.41;10397451;28;20064;-67
2021/12/16 20:57:10;;;;;;;46.78;26.55;;;;;;;9.62;64.71;102097.13;10402438;28;20073;-67
2021/12/16 21:02:19;;;;;;;47.90;27.20;;;;;;;9.62;64.90;102094.53;10401966;28;20485;-67
2021/12/16 21:07:22;;;;;;;49.60;27.48;;;;;;;9.63;64.70;102096.22;10400924;28;20141;-67
2021/12/16 21:12:24;;;;;;;45.10;26.30;;;;;;;9.64;65.02;102090.13;10395993;28;20049;-66
2021/12/16 21:17:26;;;;;;;46.20;26.30;;;;;;;9.60;64.84;102096.31;10401742;28;20127;-66
2021/12/16 21:22:29;;;;;;;47.13;25.92;;;;;;;9.57;64.89;102104.19;10401696;28;20054;-66
2021/12/16 21:27:32;;;;;;;47.25;26.70;;;;;;;9.58;64.92;102103.28;10401784;28;20334;-67
2021/12/16 21:32:34;;;;;;;46.58;25.38;;;;;;;9.59;64.74;102110.25;10399275;28;20060;-66
2021/12/16 21:37:36;;;;;;;49.60;28.13;;;;;;;9.54;64.90;102112.09;10400938;28;20049;-67
2021/12/16 21:42:39;;;;;;;56.60;28.95;;;;;;;9.53;64.95;102105.16;10401081;28;20537;-67
2021/12/16 21:47:42;;;;;;;50.05;27.58;;;;;;;9.51;65.02;102108.69;10400537;28;20512;-67
2021/12/16 21:52:44;;;;;;;58.80;31.45;;;;;;;9.48;64.94;102117.44;10401957;28;20052;-66
2021/12/16 21:57:52;;;;;;;54.58;28.58;;;;;;;9.29;65.35;102113.50;10405348;28;20045;-66
2021/12/16 22:02:56;;;;;;;52.05;28.60;;;;;;;9.27;65.32;102119.63;10422904;28;20050;-66
2021/12/16 22:07:59;;;;;;;54.80;30.02;;;;;;;9.12;65.64;102115.56;10406733;28;20053;-66
2021/12/16 22:13:01;;;;;;;56.00;29.50;;;;;;;9.18;65.71;102114.59;10407441;28;20041;-67
2021/12/16 22:18:06;;;;;;;58.78;30.08;;;;;;;9.23;65.67;102116.22;10406264;28;20080;-66
2021/12/16 22:23:11;;;;;;;49.63;26.50;;;;;;;9.29;65.45;102123.06;10401391;28;20100;-66
2021/12/16 22:28:13;;;;;;;39.78;21.60;;;;;;;9.29;65.14;102115.25;10401429;28;20044;-66
2021/12/16 22:33:16;;;;;;;45.80;26.33;;;;;;;9.35;65.21;102123.81;10404281;28;20494;-66
2021/12/16 22:38:21;;;;;;;32.65;19.17;;;;;;;9.35;64.86;102120.34;10404838;28;20054;-66
2021/12/16 22:43:23;;;;;;;33.42;17.50;;;;;;;9.24;64.97;102117.94;10402699;28;20056;-66
2021/12/16 22:48:30;;;;;;;35.95;20.17;;;;;;;9.26;65.01;102126.59;10398864;28;20045;-66
2021/12/16 22:53:32;;;;;;;34.30;19.05;;;;;;;9.29;64.97;102129.16;10399431;28;20045;-66
2021/12/16 22:58:34;;;;;;;25.45;16.08;;;;;;;9.30;64.70;102130.88;10403132;28;20167;-66
2021/12/16 23:03:40;;;;;;;27.98;16.10;;;;;;;9.19;65.08;102135.44;10403571;28;20052;-66
2021/12/16 23:08:46;;;;;;;21.33;13.75;;;;;;;9.16;64.91;102143.31;10405166;28;20507;-67
2021/12/16 23:13:51;;;;;;;26.65;15.85;;;;;;;9.06;65.14;102141.78;10401460;28;20045;-66
2021/12/16 23:24:00;;;;;;;32.75;18.83;;;;;;;9.21;65.20;102133.66;10403318;28;20045;-66
2021/12/16 23:29:03;;;;;;;40.17;22.90;;;;;;;9.17;65.44;102139.84;10403324;28;20439;-66
2021/12/16 23:34:06;;;;;;;36.38;21.77;;;;;;;9.20;65.67;102134.53;10403632;28;20056;-66
2021/12/16 23:39:10;;;;;;;39.28;23.45;;;;;;;9.11;65.73;102129.53;10403222;28;20080;-66
2021/12/16 23:54:50;;;;;;;42.58;22.65;;;;;;;8.77;66.83;102128.41;10379875;28;20042;-66
2021/12/16 23:59:52;;;;;;;41.85;21.00;;;;;;;8.61;67.22;102124.31;10404746;28;20046;-66
